Time;durP1;ratioP1;P1;durP2;ratioP2;P2;SDS_P1;SDS_P2;PMS_P1;PMS_P2;Temp;Humidity;BMP_temperature;BMP_pressure;BME280_temperature;BME280_humidity;BME280_pressure;Samples;Min_cycle;Max_cycle;Signal;HPM_P1;HPM_P2
2023/07/02 00:00:06;;;;;;;10.38;5.70;;;16.60;99.90;;;;;;5090581;28;20437;-78
2023/07/02 00:02:31;;;;;;;10.80;5.80;;;16.60;99.90;;;;;;5090967;28;20406;-78
2023/07/02 00:04:57;;;;;;;9.52;5.47;;;16.60;99.90;;;;;;5090513;28;20478;-77
2023/07/02 00:07:25;;;;;;;10.13;5.75;;;16.60;99.90;;;;;;5091949;28;20938;-77
2023/07/02 00:09:51;;;;;;;9.25;5.18;;;16.60;99.90;;;;;;5088203;28;20422;-77
2023/07/02 00:12:17;;;;;;;9.98;5.68;;;16.60;99.90;;;;;;5087742;28;20947;-78
2023/07/02 00:14:42;;;;;;;10.13;5.82;;;16.50;99.90;;;;;;5085553;28;20485;-78
2023/07/02 00:17:12;;;;;;;9.18;5.28;;;16.50;99.90;;;;;;5091133;28;20769;-79
2023/07/02 00:19:41;;;;;;;9.97;5.73;;;16.60;99.90;;;;;;5091081;28;20505;-78
2023/07/02 00:22:08;;;;;;;9.60;5.63;;;16.60;99.90;;;;;;5090683;28;20406;-79
2023/07/02 00:24:34;;;;;;;10.80;5.77;;;16.50;99.90;;;;;;5089483;28;20483;-78
2023/07/02 00:27:00;;;;;;;9.80;5.67;;;16.60;99.90;;;;;;5087967;28;20407;-78
2023/07/02 00:29:26;;;;;;;10.50;5.70;;;16.60;99.90;;;;;;5092243;28;20402;-78
2023/07/02 00:31:51;;;;;;;12.20;5.60;;;16.50;99.90;;;;;;5087688;28;20499;-78
2023/07/02 00:34:18;;;;;;;9.98;5.82;;;16.60;99.90;;;;;;5086417;28;20419;-78
2023/07/02 00:36:44;;;;;;;12.55;5.50;;;16.60;99.90;;;;;;5079137;28;20813;-78
2023/07/02 00:39:11;;;;;;;9.18;5.85;;;16.60;99.90;;;;;;5088428;28;20406;-79
2023/07/02 00:41:38;;;;;;;12.93;5.90;;;16.60;99.90;;;;;;5087360;28;20417;-79
2023/07/02 00:44:04;;;;;;;10.07;5.57;;;16.60;99.90;;;;;;5081483;28;20491;-79
2023/07/02 00:46:30;;;;;;;9.40;5.45;;;16.50;99.90;;;;;;5090988;28;20572;-79
2023/07/02 00:48:56;;;;;;;11.00;5.70;;;16.50;99.90;;;;;;5086757;28;20497;-78
2023/07/02 00:51:27;;;;;;;10.95;5.63;;;16.50;99.90;;;;;;5090899;28;20489;-78
2023/07/02 00:53:55;;;;;;;13.23;5.70;;;16.50;99.90;;;;;;5090099;28;20413;-78
2023/07/02 00:56:22;;;;;;;11.13;5.18;;;16.40;99.90;;;;;;5070017;28;20421;-78
2023/07/02 00:58:52;;;;;;;13.02;5.90;;;16.40;99.90;;;;;;5082380;28;20418;-79
2023/07/02 01:01:20;;;;;;;13.43;6.13;;;16.40;99.90;;;;;;5082322;28;20406;-78
2023/07/02 01:04:02;;;;;;;15.25;6.20;;;16.40;99.90;;;;;;5089513;28;20989;-79
2023/07/02 01:06:36;;;;;;;13.80;6.78;;;16.30;99.90;;;;;;5083772;28;20467;-78
2023/07/02 01:09:05;;;;;;;16.85;6.55;;;16.30;99.90;;;;;;5072278;28;20429;-79
2023/07/02 01:11:52;;;;;;;20.40;7.28;;;16.20;99.90;;;;;;5077395;28;20434;-78
2023/07/02 01:14:25;;;;;;;16.20;6.82;;;16.20;99.90;;;;;;5082607;28;20426;-78
2023/07/02 01:16:53;;;;;;;18.88;7.68;;;16.10;99.90;;;;;;5088015;28;20424;-78
2023/07/02 01:19:43;;;;;;;16.42;7.60;;;16.10;99.90;;;;;;5080905;28;20479;-78
2023/07/02 01:22:10;;;;;;;16.63;7.38;;;16.00;99.90;;;;;;5076403;28;20414;-78
2023/07/02 01:24:38;;;;;;;20.85;7.82;;;16.00;99.90;;;;;;5089322;28;20948;-78
2023/07/02 01:27:05;;;;;;;22.00;7.97;;;16.00;99.90;;;;;;5089616;28;20410;-79
2023/07/02 01:29:31;;;;;;;16.23;7.97;;;16.00;99.90;;;;;;5089832;28;20925;-78
2023/07/02 01:31:57;;;;;;;19.23;8.57;;;15.90;99.90;;;;;;5089460;28;20406;-79
2023/07/02 01:34:23;;;;;;;16.50;7.50;;;16.00;99.90;;;;;;5087950;28;20465;-79
2023/07/02 01:36:48;;;;;;;16.60;7.38;;;15.90;99.90;;;;;;5081786;28;20465;-78
2023/07/02 01:39:15;;;;;;;19.85;8.00;;;15.80;99.90;;;;;;5088509;28;20422;-78
2023/07/02 01:41:45;;;;;;;19.75;8.40;;;15.80;99.90;;;;;;5085478;28;20430;-79
2023/07/02 01:44:11;;;;;;;17.50;8.32;;;15.70;99.90;;;;;;5080607;28;20406;-79
2023/07/02 01:46:37;;;;;;;21.38;8.27;;;15.60;99.90;;;;;;5089632;28;20735;-78
2023/07/02 01:49:02;;;;;;;22.45;8.35;;;15.60;99.90;;;;;;5088011;28;20410;-78
2023/07/02 01:51:28;;;;;;;18.40;8.17;;;15.60;99.90;;;;;;5072619;28;20409;-78
2023/07/02 01:53:53;;;;;;;20.43;9.03;;;16.50;99.90;;;;;;5087017;28;20421;-78
2023/07/02 01:56:19;;;;;;;19.80;9.20;;;15.50;99.90;;;;;;5083992;28;20458;-79
2023/07/02 01:58:45;;;;;;;22.27;8.70;;;15.50;99.90;;;;;;5101181;28;20425;-78
2023/07/02 02:01:10;;;;;;;21.10;8.88;;;15.50;99.90;;;;;;5092751;28;20497;-78
2023/07/02 02:03:36;;;;;;;22.00;8.27;;;15.40;99.90;;;;;;5087116;28;20418;-78
2023/07/02 02:06:01;;;;;;;24.73;9.13;;;15.40;99.90;;;;;;5070031;28;20409;-79
2023/07/02 02:08:27;;;;;;;22.00;8.87;;;15.30;99.90;;;;;;5083573;28;20419;-78
2023/07/02 02:10:53;;;;;;;24.15;9.10;;;15.30;99.90;;;;;;5086085;28;20417;-81
2023/07/02 02:13:18;;;;;;;21.45;8.80;;;15.30;99.90;;;;;;5084833;28;20418;-78
2023/07/02 02:15:44;;;;;;;23.90;9.07;;;15.90;99.90;;;;;;5084043;28;20821;-78
2023/07/02 02:18:09;;;;;;;21.90;9.00;;;15.20;99.90;;;;;;5088791;28;20925;-78
2023/07/02 02:20:38;;;;;;;22.67;8.87;;;15.70;99.90;;;;;;5110263;22;20938;-79
2023/07/02 02:23:43;;;;;;;23.45;8.90;;;15.20;99.90;;;;;;5065270;28;20446;-80
2023/07/02 02:26:29;;;;;;;22.85;9.13;;;15.10;99.90;;;;;;5063909;28;20454;-79
2023/07/02 02:29:34;;;;;;;23.13;9.13;;;15.10;99.90;;;;;;5012351;28;20415;-80
2023/07/02 02:32:10;;;;;;;21.98;8.82;;;14.10;99.90;;;;;;5065588;28;20410;-79
2023/07/02 02:34:40;;;;;;;25.98;9.52;;;15.00;99.90;;;;;;5034712;28;20401;-80
2023/07/02 02:41:20;;;;;;;23.63;9.50;;;15.00;99.90;;;;;;5049372;28;20401;-80
2023/07/02 02:44:21;;;;;;;25.52;9.63;;;15.00;99.90;;;;;;5037598;28;20428;-79
2023/07/02 02:46:53;;;;;;;22.35;8.93;;;14.90;99.90;;;;;;5025256;28;20898;-80
2023/07/02 02:50:00;;;;;;;21.95;9.50;;;14.90;99.90;;;;;;5048263;28;20443;-79
2023/07/02 02:53:02;;;;;;;26.88;9.68;;;14.80;99.90;;;;;;5020844;28;20415;-80
2023/07/02 02:55:54;;;;;;;25.95;9.82;;;14.80;99.90;;;;;;5029513;28;20413;-79
2023/07/02 02:58:32;;;;;;;24.40;9.80;;;14.80;99.90;;;;;;5043055;28;20921;-80
2023/07/02 03:01:46;;;;;;;22.13;9.63;;;14.80;99.90;;;;;;4988272;28;20496;-80
2023/07/02 03:04:44;;;;;;;25.67;10.02;;;14.80;99.90;;;;;;4934959;28;20778;-81
2023/07/02 03:08:13;;;;;;;24.45;9.05;;;14.80;99.90;;;;;;4967134;28;21001;-80
2023/07/02 03:15:32;;;;;;;24.02;9.60;;;14.70;99.90;;;;;;4969900;28;20887;-79
2023/07/02 03:22:58;;;;;;;31.58;9.70;;;14.60;99.90;;;;;;4938529;29;20423;-80
2023/07/02 03:26:40;;;;;;;26.90;10.20;;;14.60;99.90;;;;;;4854215;29;20518;-80
2023/07/02 03:30:08;;;;;;;23.47;10.10;;;14.60;99.90;;;;;;4861765;29;20475;-80
2023/07/02 03:33:35;;;;;;;25.73;10.30;;;14.60;99.90;;;;;;4890046;29;20414;-80
2023/07/02 03:36:51;;;;;;;25.20;9.50;;;14.60;99.90;;;;;;4902282;29;20405;-80
2023/07/02 03:43:47;;;;;;;27.60;9.68;;;14.50;99.90;;;;;;4856193;29;20402;-80
2023/07/02 03:51:09;;;;;;;25.08;10.05;;;14.60;99.90;;;;;;4886037;29;20451;-80
2023/07/02 03:55:18;;;;;;;22.73;9.47;;;14.50;99.90;;;;;;4892445;29;20538;-80
2023/07/02 03:58:53;;;;;;;25.23;9.60;;;14.50;99.90;;;;;;4883758;29;20496;-80
2023/07/02 04:02:32;;;;;;;28.08;9.73;;;14.50;99.90;;;;;;4966050;28;20430;-79
2023/07/02 04:09:41;;;;;;;22.90;9.40;;;14.50;99.90;;;;;;5034275;28;20585;-80
2023/07/02 04:12:38;;;;;;;25.27;8.98;;;14.50;99.90;;;;;;5003353;28;20485;-79
2023/07/02 04:15:52;;;;;;;25.00;9.38;;;14.60;99.90;;;;;;5040406;28;20447;-80
2023/07/02 04:18:50;;;;;;;25.73;9.25;;;14.50;99.90;;;;;;5023693;28;20499;-79
2023/07/02 04:21:51;;;;;;;22.85;9.00;;;14.50;99.90;;;;;;5019806;28;20391;-79
2023/07/02 04:24:18;;;;;;;24.73;9.27;;;14.70;99.90;;;;;;4990801;28;20429;-80
2023/07/02 04:30:58;;;;;;;22.35;8.75;;;14.60;99.90;;;;;;5061973;28;20363;-79
2023/07/02 04:34:01;;;;;;;25.23;9.52;;;14.60;99.90;;;;;;5020436;28;20600;-79
2023/07/02 04:37:06;;;;;;;24.98;9.43;;;14.60;99.90;;;;;;5037773;28;20780;-79
2023/07/02 04:39:36;;;;;;;22.87;8.93;;;14.70;99.90;;;;;;5022311;28;20426;-79
2023/07/02 04:42:57;;;;;;;24.02;9.57;;;14.70;99.90;;;;;;5032342;28;20496;-79
2023/07/02 04:46:08;;;;;;;23.92;9.48;;;14.70;99.90;;;;;;5002997;28;20413;-79
2023/07/02 04:49:51;;;;;;;27.88;9.70;;;14.70;99.90;;;;;;5047082;28;20867;-79
2023/07/02 04:53:07;;;;;;;25.00;9.18;;;14.80;99.90;;;;;;5019787;28;20407;-79
2023/07/02 04:55:43;;;;;;;22.95;9.20;;;14.80;99.90;;;;;;5020917;28;20438;-79
2023/07/02 04:58:18;;;;;;;25.45;9.63;;;14.80;99.90;;;;;;5015586;28;22178;-80
2023/07/02 05:01:10;;;;;;;26.88;9.43;;;15.10;99.90;;;;;;5037390;28;20405;-80
2023/07/02 05:04:30;;;;;;;22.88;8.80;;;15.00;99.90;;;;;;5044992;28;20487;-80
2023/07/02 05:07:29;;;;;;;25.45;9.48;;;15.00;99.90;;;;;;5028437;28;20436;-80
2023/07/02 05:10:33;;;;;;;25.10;9.45;;;15.00;99.90;;;;;;5021070;28;20471;-80
2023/07/02 05:17:05;;;;;;;27.52;8.80;;;15.20;99.90;;;;;;5039540;28;20404;-79
2023/07/02 05:20:29;;;;;;;25.00;9.23;;;15.10;99.90;;;;;;5061566;28;20415;-79
2023/07/02 05:26:43;;;;;;;23.55;9.02;;;15.20;99.90;;;;;;5027352;28;20876;-81
2023/07/02 05:30:12;;;;;;;27.50;9.27;;;15.30;99.90;;;;;;5027120;28;20427;-81
2023/07/02 05:33:14;;;;;;;28.93;9.37;;;15.40;99.90;;;;;;5026844;28;20428;-80
2023/07/02 05:36:53;;;;;;;25.95;9.43;;;15.40;99.90;;;;;;5051737;28;20455;-80
2023/07/02 05:40:18;;;;;;;25.15;9.45;;;15.50;99.90;;;;;;5049050;28;20426;-80
2023/07/02 05:44:12;;;;;;;25.52;9.25;;;15.50;99.90;;;;;;5045691;28;20929;-80
2023/07/02 05:47:21;;;;;;;26.10;8.80;;;16.90;99.90;;;;;;5049765;28;20416;-79
2023/07/02 05:50:23;;;;;;;23.20;8.73;;;15.60;99.90;;;;;;5048181;28;20420;-80
2023/07/02 05:54:27;;;;;;;27.00;9.00;;;15.70;99.90;;;;;;4993624;28;20414;-80
2023/07/02 05:57:30;;;;;;;22.73;8.73;;;15.60;99.90;;;;;;5006910;28;20952;-82
2023/07/02 06:04:21;;;;;;;23.08;8.57;;;15.90;99.90;;;;;;4990114;28;20456;-80
2023/07/02 06:56:32;;;;;;;20.97;7.70;;;16.80;99.90;;;;;;4929934;29;20450;-81
2023/07/02 07:22:09;;;;;;;18.35;7.38;;;17.30;99.90;;;;;;4962848;28;20834;-80
2023/07/02 07:26:06;;;;;;;19.98;6.70;;;17.50;99.90;;;;;;4949438;29;20397;-80
2023/07/02 07:33:33;;;;;;;18.55;6.63;;;17.00;99.90;;;;;;4874312;29;20456;-80
2023/07/02 07:44:57;;;;;;;20.45;5.72;;;17.20;99.90;;;;;;4922102;29;20818;-80
2023/07/02 07:48:50;;;;;;;16.67;5.97;;;17.20;99.90;;;;;;4901993;29;20779;-80
2023/07/02 07:51:46;;;;;;;19.33;5.82;;;17.30;99.90;;;;;;4845618;29;20432;-81
2023/07/02 07:54:13;;;;;;;16.80;5.88;;;17.10;99.90;;;;;;4811996;29;20971;-79
2023/07/02 08:58:46;;;;;;;14.88;4.10;;;18.60;95.60;;;;;;5025819;28;20530;-79
2023/07/02 09:01:54;;;;;;;11.90;4.55;;;18.90;96.10;;;;;;5024568;28;20409;-80
2023/07/02 09:05:25;;;;;;;12.25;4.53;;;19.00;95.80;;;;;;5045204;28;20778;-81
2023/07/02 09:12:17;;;;;;;14.20;5.28;;;18.90;95.60;;;;;;4990477;28;20445;-80
2023/07/02 09:30:12;;;;;;;14.13;5.53;;;18.40;97.90;;;;;;5028822;28;20401;-81
2023/07/02 09:33:35;;;;;;;14.45;5.30;;;18.30;97.30;;;;;;5051529;28;20455;-81
2023/07/02 09:36:52;;;;;;;13.30;5.47;;;18.30;97.80;;;;;;5033665;28;20462;-81
2023/07/02 09:44:01;;;;;;;14.30;5.40;;;18.40;98.50;;;;;;4967304;28;22603;-81
2023/07/02 09:55:06;;;;;;;15.05;5.20;;;19.00;97.60;;;;;;4965184;28;20497;-82
2023/07/02 10:02:21;;;;;;;12.18;4.80;;;19.20;96.20;;;;;;4907224;29;20837;-80
2023/07/02 10:12:59;;;;;;;10.88;4.88;;;18.40;97.90;;;;;;4909812;29;20456;-82
2023/07/02 10:20:33;;;;;;;10.95;4.18;;;18.00;99.70;;;;;;4913458;29;20472;-82
2023/07/02 10:35:22;;;;;;;11.87;4.37;;;18.60;97.20;;;;;;4986861;28;20382;-82
2023/07/02 10:38:58;;;;;;;11.05;4.10;;;18.90;96.00;;;;;;4969438;28;20416;-82
2023/07/02 10:53:34;;;;;;;10.85;3.90;;;20.00;93.00;;;;;;4966456;28;20397;-82
2023/07/02 11:14:49;;;;;;;10.25;3.88;;;21.30;84.90;;;;;;5071375;27;20363;-66
2023/07/02 11:17:14;;;;;;;10.80;4.33;;;21.10;85.20;;;;;;5065721;27;20408;-63
2023/07/02 11:19:40;;;;;;;11.32;4.00;;;20.90;86.00;;;;;;5068175;27;20440;-64
2023/07/02 11:22:06;;;;;;;10.60;4.22;;;20.70;86.70;;;;;;5043092;27;20406;-65
2023/07/02 11:24:33;;;;;;;11.43;4.03;;;20.70;89.90;;;;;;5043939;27;20476;-63
2023/07/02 11:27:08;;;;;;;10.43;4.10;;;21.00;89.60;;;;;;5037341;27;20414;-62
2023/07/02 11:29:36;;;;;;;11.88;4.07;;;21.10;86.90;;;;;;5140647;27;20421;-62
2023/07/02 11:32:11;;;;;;;11.75;4.30;;;21.40;86.50;;;;;;5035038;27;20418;-63
2023/07/02 11:34:38;;;;;;;9.93;3.78;;;21.50;85.20;;;;;;5045870;27;20466;-61
2023/07/02 11:37:04;;;;;;;10.70;4.32;;;21.60;84.70;;;;;;5050493;27;21178;-68
2023/07/02 11:39:31;;;;;;;9.93;3.83;;;21.60;83.40;;;;;;5048082;27;20410;-64
2023/07/02 11:41:57;;;;;;;9.82;3.95;;;21.70;84.60;;;;;;5150127;27;20402;-64
2023/07/02 11:44:22;;;;;;;9.52;3.70;;;21.80;80.10;;;;;;5051438;27;20401;-64
2023/07/02 11:46:48;;;;;;;8.73;3.60;;;21.60;79.30;;;;;;5149204;27;20430;-68
2023/07/02 11:49:14;;;;;;;9.65;3.72;;;21.40;80.70;;;;;;5043592;27;20666;-66
2023/07/02 11:51:46;;;;;;;10.13;3.50;;;21.10;81.70;;;;;;5045519;27;20863;-67
2023/07/02 11:54:12;;;;;;;9.73;3.70;;;21.00;82.10;;;;;;5052830;27;20489;-66
2023/07/02 11:56:38;;;;;;;8.97;3.97;;;20.90;83.20;;;;;;5053973;27;20393;-67
2023/07/02 11:59:04;;;;;;;10.80;3.40;;;20.90;83.00;;;;;;5047479;27;20937;-62
2023/07/02 12:01:29;;;;;;;11.33;3.70;;;20.80;81.00;;;;;;5075102;27;20506;-61
2023/07/02 12:03:55;;;;;;;9.65;3.58;;;20.50;82.40;;;;;;5052725;27;20380;-62
2023/07/02 12:06:21;;;;;;;8.82;3.42;;;20.40;82.00;;;;;;5056772;27;20508;-67
2023/07/02 12:08:46;;;;;;;8.63;3.40;;;20.30;82.70;;;;;;5055182;27;20480;-66
2023/07/02 12:11:12;;;;;;;6.80;3.30;;;20.30;82.30;;;;;;5055057;27;20970;-63
2023/07/02 12:13:37;;;;;;;11.52;3.40;;;20.30;79.30;;;;;;5040755;27;20479;-67
2023/07/02 12:16:03;;;;;;;6.53;3.10;;;20.10;80.80;;;;;;5050406;27;20468;-64
2023/07/02 12:18:29;;;;;;;10.00;3.33;;;20.10;81.30;;;;;;5054875;27;20401;-63
2023/07/02 12:20:54;;;;;;;10.30;3.80;;;20.10;82.80;;;;;;5053147;27;20480;-66
2023/07/02 12:23:20;;;;;;;9.68;3.70;;;20.10;81.90;;;;;;5048920;27;20424;-68
2023/07/02 12:25:46;;;;;;;9.10;4.13;;;20.10;84.10;;;;;;5039230;27;20973;-65
2023/07/02 12:28:11;;;;;;;10.17;3.57;;;20.20;83.60;;;;;;5037124;27;20418;-63
2023/07/02 12:30:37;;;;;;;9.73;3.78;;;20.30;82.00;;;;;;5038510;28;20422;-68
2023/07/02 12:33:03;;;;;;;8.98;3.58;;;20.30;82.40;;;;;;5039953;27;20421;-64
2023/07/02 12:35:29;;;;;;;7.97;3.50;;;20.20;80.40;;;;;;5078199;27;20771;-63
2023/07/02 12:37:54;;;;;;;10.90;3.83;;;20.10;80.60;;;;;;5037489;27;20550;-62
2023/07/02 12:40:20;;;;;;;10.23;3.97;;;20.00;80.70;;;;;;5042675;27;20492;-67
2023/07/02 12:42:47;;;;;;;10.30;3.67;;;19.60;81.60;;;;;;5042527;27;20991;-63
2023/07/02 12:45:14;;;;;;;9.25;3.95;;;19.90;81.30;;;;;;5040873;27;20795;-63
2023/07/02 12:47:41;;;;;;;9.80;4.23;;;19.90;83.20;;;;;;5039683;27;20927;-63
2023/07/02 12:50:08;;;;;;;9.70;3.45;;;20.00;80.90;;;;;;5035261;27;20400;-68
2023/07/02 12:52:34;;;;;;;9.40;3.58;;;19.50;80.20;;;;;;5039448;27;20854;-65
2023/07/02 12:55:00;;;;;;;10.57;3.70;;;19.80;81.80;;;;;;5041321;27;20425;-65
2023/07/02 12:57:26;;;;;;;9.27;4.17;;;19.80;81.30;;;;;;5035456;27;20418;-68
2023/07/02 12:59:56;;;;;;;7.63;3.90;;;19.70;81.10;;;;;;5039831;27;21235;-65
2023/07/02 13:02:22;;;;;;;10.40;4.10;;;19.70;81.40;;;;;;5059323;27;20420;-62
2023/07/02 13:04:48;;;;;;;9.90;4.30;;;19.90;83.50;;;;;;5037392;27;20438;-66
2023/07/02 13:07:14;;;;;;;9.32;4.10;;;20.10;79.20;;;;;;5047915;27;20767;-65
2023/07/02 13:09:40;;;;;;;8.27;3.90;;;20.50;75.70;;;;;;5066473;27;20968;-66
2023/07/02 13:12:07;;;;;;;10.97;4.10;;;20.90;70.00;;;;;;5039893;27;20642;-68
2023/07/02 13:14:33;;;;;;;8.98;4.10;;;21.00;69.40;;;;;;5059342;27;20762;-65
2023/07/02 13:17:04;;;;;;;10.25;4.47;;;21.20;70.70;;;;;;5103070;27;20411;-66
2023/07/02 13:19:30;;;;;;;9.67;4.43;;;21.40;71.00;;;;;;5041208;27;20954;-69
2023/07/02 13:21:56;;;;;;;11.97;4.50;;;21.60;70.30;;;;;;5038016;27;20678;-65
2023/07/02 13:24:21;;;;;;;10.57;4.53;;;21.60;69.50;;;;;;5041571;27;20456;-63
2023/07/02 13:26:47;;;;;;;8.97;4.50;;;21.70;70.00;;;;;;5035020;27;20509;-66
2023/07/02 13:29:13;;;;;;;10.47;4.80;;;21.70;70.30;;;;;;5032729;27;20505;-67
2023/07/02 13:31:39;;;;;;;9.23;4.63;;;21.80;68.20;;;;;;5035153;27;20417;-66
2023/07/02 13:34:05;;;;;;;12.07;4.90;;;21.70;67.30;;;;;;5041839;27;20426;-67
2023/07/02 13:36:30;;;;;;;10.50;4.50;;;21.60;67.50;;;;;;5037062;27;20418;-68
2023/07/02 13:38:56;;;;;;;8.73;4.55;;;21.60;67.00;;;;;;5036153;27;21053;-64
2023/07/02 13:41:22;;;;;;;9.35;4.80;;;21.70;67.80;;;;;;5023027;27;20761;-65
2023/07/02 13:43:47;;;;;;;10.53;4.60;;;21.80;67.10;;;;;;5047946;27;20419;-67
2023/07/02 13:46:13;;;;;;;12.13;4.25;;;21.90;65.40;;;;;;5062087;27;20480;-66
2023/07/02 13:48:39;;;;;;;8.80;4.70;;;21.80;66.20;;;;;;5030319;27;20434;-66
2023/07/02 13:51:05;;;;;;;10.80;4.72;;;21.70;67.60;;;;;;5030055;27;20401;-63
2023/07/02 13:53:32;;;;;;;9.70;4.40;;;21.60;67.60;;;;;;5034644;27;20514;-65
2023/07/02 13:55:57;;;;;;;11.65;4.70;;;21.30;67.50;;;;;;5036164;27;20407;-65
2023/07/02 13:58:23;;;;;;;8.70;4.33;;;21.40;68.20;;;;;;5040805;27;20402;-63
2023/07/02 14:00:49;;;;;;;11.48;4.63;;;21.20;68.10;;;;;;5029982;27;21637;-65
2023/07/02 14:03:15;;;;;;;10.80;4.43;;;21.10;68.80;;;;;;5032526;27;20552;-64
2023/07/02 14:05:40;;;;;;;10.03;4.40;;;21.10;69.50;;;;;;5034560;27;20912;-63
2023/07/02 14:08:06;;;;;;;12.47;4.70;;;21.10;70.10;;;;;;5030303;27;20415;-66
2023/07/02 14:10:32;;;;;;;9.20;4.50;;;21.00;70.90;;;;;;5040572;27;20484;-67
2023/07/02 14:12:57;;;;;;;10.02;4.50;;;20.90;70.20;;;;;;5029512;27;20503;-63
2023/07/02 14:15:25;;;;;;;11.20;4.68;;;20.80;70.90;;;;;;5036869;27;20871;-63
2023/07/02 14:17:51;;;;;;;10.45;4.70;;;20.70;71.60;;;;;;5037988;27;20438;-68
2023/07/02 14:20:16;;;;;;;9.55;4.50;;;20.60;73.30;;;;;;5044172;27;20394;-64
2023/07/02 14:22:42;;;;;;;9.75;4.25;;;20.70;73.70;;;;;;5077565;22;20780;-67
2023/07/02 14:25:08;;;;;;;9.23;4.40;;;20.80;71.00;;;;;;5088109;28;20451;-63
2023/07/02 14:27:34;;;;;;;10.70;4.60;;;20.80;69.20;;;;;;5089314;28;20779;-62
2023/07/02 14:30:02;;;;;;;9.93;4.37;;;20.80;68.80;;;;;;5085414;28;20400;-62
2023/07/02 14:32:28;;;;;;;8.85;4.47;;;20.80;68.60;;;;;;5096154;28;20394;-63
2023/07/02 14:34:53;;;;;;;8.97;4.47;;;20.70;68.40;;;;;;5069047;28;20447;-63
2023/07/02 14:37:19;;;;;;;11.80;4.67;;;20.70;69.50;;;;;;5095183;28;20392;-64
2023/07/02 14:39:44;;;;;;;9.73;4.40;;;20.60;70.70;;;;;;5073573;28;20467;-66
2023/07/02 14:42:10;;;;;;;9.83;4.40;;;20.50;71.60;;;;;;5096309;28;20517;-63
2023/07/02 14:44:36;;;;;;;9.93;4.20;;;20.50;71.80;;;;;;5081487;28;20899;-62
2023/07/02 14:47:01;;;;;;;9.40;4.10;;;20.60;70.60;;;;;;5083047;28;20415;-62
2023/07/02 14:49:27;;;;;;;10.90;4.60;;;20.70;69.80;;;;;;5085266;28;20915;-67
2023/07/02 14:51:53;;;;;;;10.33;4.70;;;20.70;70.10;;;;;;5053848;28;21085;-67
2023/07/02 14:54:18;;;;;;;9.80;4.63;;;20.70;70.30;;;;;;5078371;28;20419;-63
2023/07/02 14:56:44;;;;;;;11.23;4.65;;;20.60;70.00;;;;;;5065971;28;20412;-64
2023/07/02 14:59:10;;;;;;;10.90;4.43;;;20.50;70.90;;;;;;5085035;28;20406;-62
2023/07/02 15:01:35;;;;;;;11.50;4.70;;;20.40;71.40;;;;;;5071949;28;20475;-64
2023/07/02 15:04:01;;;;;;;10.43;4.30;;;20.40;70.70;;;;;;5093227;28;20462;-62
2023/07/02 15:06:27;;;;;;;10.30;4.35;;;20.30;71.30;;;;;;5076203;28;20408;-62
2023/07/02 15:08:52;;;;;;;12.32;4.35;;;20.20;70.30;;;;;;5085806;28;20402;-62
2023/07/02 15:11:18;;;;;;;9.10;4.20;;;20.10;69.60;;;;;;5090330;28;20400;-63
2023/07/02 15:13:44;;;;;;;10.63;4.18;;;20.00;70.20;;;;;;5086765;28;20418;-63
2023/07/02 15:16:12;;;;;;;9.50;3.88;;;20.00;69.20;;;;;;5076390;28;20406;-63
2023/07/02 15:18:38;;;;;;;10.90;4.22;;;20.00;69.90;;;;;;5070046;28;20814;-62
2023/07/02 15:21:04;;;;;;;9.77;4.20;;;19.80;70.50;;;;;;5069884;28;20482;-62
2023/07/02 15:23:30;;;;;;;10.07;4.23;;;19.90;71.60;;;;;;5066428;28;20665;-62
2023/07/02 15:25:58;;;;;;;10.45;4.30;;;20.00;71.50;;;;;;5077097;28;20502;-67
2023/07/02 15:28:25;;;;;;;9.25;4.07;;;20.20;71.10;;;;;;5068640;28;20414;-65
2023/07/02 15:30:55;;;;;;;10.55;4.80;;;20.30;71.20;;;;;;5084378;28;20457;-63
2023/07/02 15:33:21;;;;;;;9.98;4.25;;;20.30;71.50;;;;;;5079475;28;20485;-62
2023/07/02 15:35:47;;;;;;;11.20;4.45;;;20.30;69.80;;;;;;5085177;28;20455;-64
2023/07/02 15:38:13;;;;;;;10.23;4.07;;;20.40;71.90;;;;;;5081839;28;20425;-63
2023/07/02 15:40:39;;;;;;;10.37;4.17;;;20.40;70.10;;;;;;5075239;28;20506;-63
2023/07/02 15:43:04;;;;;;;11.68;4.30;;;20.30;70.00;;;;;;5086523;28;20437;-65
2023/07/02 15:45:30;;;;;;;10.57;4.20;;;20.30;70.10;;;;;;5084852;28;20479;-63
2023/07/02 15:47:56;;;;;;;9.57;4.23;;;20.30;71.40;;;;;;5094819;28;20824;-62
2023/07/02 15:50:23;;;;;;;9.85;4.22;;;20.40;70.10;;;;;;5085436;28;20439;-62
2023/07/02 15:52:51;;;;;;;9.73;4.35;;;20.50;71.00;;;;;;5095146;28;20526;-65
2023/07/02 15:55:20;;;;;;;9.68;4.28;;;20.60;71.40;;;;;;5067316;28;20504;-63
2023/07/02 15:57:46;;;;;;;8.60;4.22;;;20.60;72.00;;;;;;5074153;28;20856;-63
2023/07/02 16:00:13;;;;;;;9.82;4.10;;;20.60;72.80;;;;;;5088898;28;20746;-63
2023/07/02 16:02:39;;;;;;;8.98;4.30;;;20.60;71.50;;;;;;5067882;28;20450;-63
2023/07/02 16:05:05;;;;;;;10.30;4.50;;;20.60;70.90;;;;;;5072606;28;20426;-63
2023/07/02 16:07:31;;;;;;;8.73;4.50;;;20.50;69.60;;;;;;5097250;28;20415;-63
2023/07/02 16:09:59;;;;;;;11.20;5.07;;;20.50;69.40;;;;;;5061992;28;20438;-64
2023/07/02 16:12:24;;;;;;;11.55;4.60;;;20.50;69.60;;;;;;5057255;28;20414;-64
2023/07/02 16:14:50;;;;;;;9.43;4.30;;;20.50;69.60;;;;;;5072884;28;20430;-65
2023/07/02 16:17:16;;;;;;;9.13;4.35;;;20.50;69.40;;;;;;5086256;28;20418;-64
2023/07/02 16:19:42;;;;;;;10.23;4.10;;;20.40;68.00;;;;;;5098850;28;20491;-65
2023/07/02 16:22:08;;;;;;;10.50;4.25;;;20.30;67.30;;;;;;5077127;28;20403;-65
2023/07/02 16:24:34;;;;;;;9.13;4.30;;;20.20;68.00;;;;;;5086076;28;20498;-64
2023/07/02 16:26:59;;;;;;;9.52;4.20;;;20.20;69.00;;;;;;5077802;28;20402;-64
2023/07/02 16:29:29;;;;;;;9.83;4.90;;;20.20;68.70;;;;;;5094955;28;20425;-64
2023/07/02 16:31:56;;;;;;;8.82;4.20;;;20.20;66.00;;;;;;5083175;28;20411;-64
2023/07/02 16:34:23;;;;;;;10.60;4.13;;;20.10;66.30;;;;;;5070187;28;20424;-64
2023/07/02 16:36:49;;;;;;;8.60;4.70;;;20.10;65.90;;;;;;5092121;28;20421;-64
2023/07/02 16:39:16;;;;;;;10.07;4.45;;;20.00;66.40;;;;;;5073183;28;20393;-65
2023/07/02 16:41:46;;;;;;;10.13;4.18;;;19.90;67.20;;;;;;5098843;28;20401;-64
2023/07/02 16:44:17;;;;;;;7.87;4.23;;;20.00;67.40;;;;;;5071583;28;20441;-64
2023/07/02 16:46:48;;;;;;;9.20;4.35;;;19.80;66.40;;;;;;5072857;28;20903;-64
2023/07/02 16:49:15;;;;;;;8.30;4.32;;;19.70;66.20;;;;;;5090474;28;20406;-64
2023/07/02 16:51:42;;;;;;;9.07;4.45;;;19.60;66.90;;;;;;5089186;28;20401;-64
2023/07/02 16:54:16;;;;;;;9.73;4.50;;;19.60;67.60;;;;;;5072179;28;21006;-64
2023/07/02 16:56:49;;;;;;;10.52;4.25;;;19.70;67.90;;;;;;5072496;28;20915;-64
2023/07/02 16:59:16;;;;;;;9.90;4.45;;;19.60;66.90;;;;;;5073004;28;20422;-64
2023/07/02 17:01:48;;;;;;;9.07;4.60;;;19.50;67.20;;;;;;5085919;28;20397;-64
2023/07/02 17:04:15;;;;;;;10.15;4.60;;;19.50;68.50;;;;;;5104899;28;20986;-64
2023/07/02 17:06:55;;;;;;;11.18;4.60;;;19.40;69.50;;;;;;5099836;28;20421;-64
2023/07/02 17:09:32;;;;;;;9.38;4.15;;;19.40;70.90;;;;;;5066900;28;20401;-63
2023/07/02 17:12:09;;;;;;;11.57;4.47;;;19.40;71.50;;;;;;5071238;28;20495;-64
2023/07/02 17:14:37;;;;;;;9.98;4.25;;;19.40;72.30;;;;;;5072304;28;20435;-64
2023/07/02 17:17:07;;;;;;;9.43;4.20;;;19.30;73.10;;;;;;5093845;28;20412;-64
2023/07/02 17:19:35;;;;;;;9.77;4.35;;;19.30;72.80;;;;;;5094873;28;20404;-64
2023/07/02 17:22:02;;;;;;;10.48;4.47;;;19.40;73.30;;;;;;5086854;28;20485;-64
2023/07/02 17:24:32;;;;;;;11.48;4.30;;;19.40;74.00;;;;;;5087875;28;20413;-64
2023/07/02 17:26:58;;;;;;;9.75;4.38;;;19.40;74.40;;;;;;5090385;28;20824;-64
2023/07/02 17:29:25;;;;;;;10.68;4.35;;;19.40;74.20;;;;;;5092235;28;20392;-64
2023/07/02 17:31:59;;;;;;;10.75;4.70;;;19.30;74.10;;;;;;5077185;28;20402;-65
2023/07/02 17:34:27;;;;;;;11.13;4.60;;;19.40;75.30;;;;;;5055523;28;20418;-65
2023/07/02 17:36:55;;;;;;;9.85;3.90;;;19.40;75.40;;;;;;5101506;28;20396;-64
2023/07/02 17:39:21;;;;;;;10.65;4.43;;;19.40;73.90;;;;;;5097047;28;20398;-65
2023/07/02 17:41:48;;;;;;;9.27;3.88;;;19.40;73.00;;;;;;5104024;28;20403;-65
2023/07/02 17:44:17;;;;;;;9.70;4.25;;;19.30;72.80;;;;;;5101767;28;20399;-64
2023/07/02 17:46:43;;;;;;;9.00;4.20;;;19.20;73.40;;;;;;5094532;28;20475;-64
2023/07/02 17:49:11;;;;;;;9.15;3.88;;;19.20;73.30;;;;;;5100923;28;20405;-64
2023/07/02 17:51:36;;;;;;;12.35;4.38;;;19.10;73.30;;;;;;5084454;28;20423;-64
2023/07/02 17:54:03;;;;;;;10.35;4.00;;;19.10;73.50;;;;;;5068749;28;20431;-62
2023/07/02 17:56:29;;;;;;;9.65;3.80;;;19.00;74.50;;;;;;5088912;28;20397;-64
2023/07/02 17:58:54;;;;;;;10.87;4.10;;;19.10;75.10;;;;;;5066868;28;20443;-64
2023/07/02 18:01:21;;;;;;;8.37;4.00;;;19.10;74.80;;;;;;5076733;28;20418;-63
2023/07/02 18:03:48;;;;;;;8.90;4.40;;;19.10;74.80;;;;;;5092912;28;20895;-63
2023/07/02 18:06:13;;;;;;;8.85;4.18;;;19.10;74.90;;;;;;5089393;28;20405;-64
2023/07/02 18:08:39;;;;;;;10.30;4.27;;;19.00;74.70;;;;;;5095871;28;20765;-64